Time;durP1;ratioP1;P1;durP2;ratioP2;P2;SDS_P1;SDS_P2;PMS_P1;PMS_P2;Temp;Humidity;BMP_temperature;BMP_pressure;BME280_temperature;BME280_humidity;BME280_pressure;Samples;Min_cycle;Max_cycle;Signal;HPM_P1;HPM_P2
2023/12/13 16:54:03;;;;;;;3.78;1.85;;;10.20;99.90;;;;;;4155452;28;20416;-79
2023/12/13 16:56:04;;;;;;;;;;;10.30;99.90;;;;;;4150749;28;20038;-79
2023/12/13 16:58:06;;;;;;;3.90;1.48;;;10.30;99.90;;;;;;4143285;28;19967;-79
2023/12/13 17:00:07;;;;;;;2.15;1.27;;;10.20;99.90;;;;;;4153844;28;20049;-77
2023/12/13 17:02:08;;;;;;;1.98;1.10;;;10.20;99.90;;;;;;4159125;28;20037;-78
2023/12/13 17:04:09;;;;;;;1.45;1.05;;;10.10;99.90;;;;;;4159601;28;20462;-79
2023/12/13 17:06:09;;;;;;;2.13;1.00;;;10.10;99.90;;;;;;4153737;28;20038;-79
2023/12/13 17:08:10;;;;;;;2.33;0.90;;;10.10;99.90;;;;;;4150052;28;20064;-80
2023/12/13 17:10:11;;;;;;;2.88;0.77;;;10.10;99.90;;;;;;4159357;28;20041;-80
2023/12/13 17:12:12;;;;;;;1.20;1.00;;;10.20;99.90;;;;;;4159607;28;20037;-79
2023/12/13 17:14:12;;;;;;;1.00;0.73;;;10.20;99.90;;;;;;4159911;28;20038;-79
2023/12/13 17:16:13;;;;;;;1.38;0.90;;;10.20;99.90;;;;;;4158806;28;20038;-79
2023/12/13 17:18:14;;;;;;;1.85;0.70;;;10.20;99.90;;;;;;4159603;28;20445;-79
2023/12/13 17:20:14;;;;;;;1.02;0.80;;;10.20;99.90;;;;;;4158703;28;20038;-79
2023/12/13 17:22:15;;;;;;;0.77;0.70;;;10.20;99.90;;;;;;4159298;28;20204;-79
2023/12/13 17:24:16;;;;;;;0.77;0.60;;;10.20;99.90;;;;;;4158218;28;20045;-78
2023/12/13 17:26:19;;;;;;;0.55;0.55;;;10.20;99.90;;;;;;4152448;28;20044;-79
2023/12/13 17:28:19;;;;;;;0.70;0.70;;;10.30;99.90;;;;;;4158905;28;20022;-78
2023/12/13 17:30:20;;;;;;;1.15;0.70;;;10.30;99.90;;;;;;4158512;28;20441;-78
2023/12/13 17:32:21;;;;;;;0.60;0.60;;;10.20;99.90;;;;;;4159516;28;20042;-78
2023/12/13 17:34:21;;;;;;;0.77;0.70;;;10.30;99.90;;;;;;4157782;28;20454;-79
2023/12/13 17:36:22;;;;;;;1.27;0.93;;;10.30;99.90;;;;;;4158678;28;20034;-78
2023/12/13 17:38:22;;;;;;;0.73;0.70;;;10.30;99.90;;;;;;4158879;28;20034;-79
2023/12/13 17:40:23;;;;;;;1.10;0.80;;;10.30;99.90;;;;;;4157367;28;20409;-79
2023/12/13 17:42:27;;;;;;;0.93;0.88;;;10.30;99.90;;;;;;4159073;28;20096;-80
2023/12/13 17:44:28;;;;;;;1.23;0.85;;;10.30;99.90;;;;;;4158804;28;20521;-79
2023/12/13 17:46:29;;;;;;;1.02;0.80;;;10.30;99.90;;;;;;4158603;28;20034;-80
2023/12/13 17:48:29;;;;;;;1.42;1.10;;;10.30;99.90;;;;;;4159844;28;20037;-66
2023/12/13 17:50:30;;;;;;;1.23;0.80;;;10.30;99.90;;;;;;4169944;28;20043;-69
2023/12/13 17:52:31;;;;;;;1.60;1.17;;;10.30;99.90;;;;;;4152735;28;20085;-69
2023/12/13 17:54:32;;;;;;;1.67;1.13;;;10.30;99.90;;;;;;4158982;28;20117;-69
2023/12/13 17:56:33;;;;;;;1.75;1.13;;;10.30;99.90;;;;;;4143823;28;20102;-69
2023/12/13 17:58:34;;;;;;;1.92;1.30;;;10.30;99.90;;;;;;4142881;28;20109;-69
2023/12/13 18:00:34;;;;;;;1.70;1.20;;;10.30;99.90;;;;;;4142005;28;20042;-69
2023/12/13 18:02:35;;;;;;;3.92;1.90;;;10.30;99.90;;;;;;4142438;28;20044;-69
2023/12/13 18:04:35;;;;;;;3.08;2.33;;;10.30;99.90;;;;;;4149550;28;20034;-69
2023/12/13 18:06:36;;;;;;;5.28;2.67;;;10.30;99.90;;;;;;4146276;28;20034;-69
2023/12/13 18:08:37;;;;;;;3.83;2.70;;;10.30;99.90;;;;;;4147756;28;20088;-69
2023/12/13 18:10:37;;;;;;;5.90;3.05;;;10.30;99.90;;;;;;4146000;28;20036;-69
2023/12/13 18:12:40;;;;;;;4.15;3.15;;;10.30;99.90;;;;;;4147369;28;20519;-70
2023/12/13 18:14:40;;;;;;;3.78;2.60;;;10.20;99.90;;;;;;4147836;28;20026;-70
2023/12/13 18:16:41;;;;;;;5.20;3.17;;;10.30;99.90;;;;;;4140621;28;20038;-70
2023/12/13 18:18:41;;;;;;;4.75;3.28;;;10.30;99.90;;;;;;4138115;28;20050;-69
2023/12/13 18:20:42;;;;;;;4.68;3.10;;;10.30;99.90;;;;;;4145728;28;20088;-69
2023/12/13 18:22:43;;;;;;;5.68;3.85;;;10.30;99.90;;;;;;4147777;28;20034;-69
2023/12/13 18:24:43;;;;;;;5.82;4.63;;;10.30;99.90;;;;;;4143309;28;20038;-70
2023/12/13 18:26:44;;;;;;;8.65;5.78;;;10.20;99.90;;;;;;4134746;28;20035;-69
2023/12/13 18:28:45;;;;;;;9.60;5.95;;;10.20;99.90;;;;;;4141605;28;20132;-69
2023/12/13 18:30:45;;;;;;;9.57;6.25;;;10.30;99.90;;;;;;4141636;28;20046;-69
2023/12/13 18:32:46;;;;;;;8.60;6.40;;;10.30;99.90;;;;;;4142625;28;20117;-69
2023/12/13 18:34:47;;;;;;;9.32;5.85;;;10.30;99.90;;;;;;4145382;28;20463;-69
2023/12/13 18:36:48;;;;;;;8.77;5.65;;;10.30;99.90;;;;;;4144698;28;20076;-69
2023/12/13 18:38:49;;;;;;;9.40;6.13;;;10.30;99.90;;;;;;4145527;28;20470;-69
2023/12/13 18:40:49;;;;;;;10.32;5.88;;;10.30;99.90;;;;;;4143833;28;20106;-69
2023/12/13 18:42:50;;;;;;;9.27;6.57;;;10.30;99.90;;;;;;4145382;28;20054;-69
2023/12/13 18:44:54;;;;;;;9.25;6.50;;;10.30;99.90;;;;;;4141647;28;20045;-69
2023/12/13 18:46:55;;;;;;;9.07;6.60;;;10.30;99.90;;;;;;4139360;28;21803;-69
2023/12/13 18:48:55;;;;;;;8.25;6.13;;;10.30;99.90;;;;;;4137647;28;20041;-69
2023/12/13 18:50:56;;;;;;;8.48;5.80;;;10.30;99.90;;;;;;4143905;28;20474;-69
2023/12/13 18:52:57;;;;;;;8.75;6.43;;;10.30;99.90;;;;;;4142286;28;20054;-69
2023/12/13 18:54:57;;;;;;;8.13;5.72;;;10.30;99.90;;;;;;4142066;28;20184;-69
2023/12/13 18:56:58;;;;;;;7.38;5.38;;;10.30;99.90;;;;;;4139449;28;20085;-69
2023/12/13 18:58:59;;;;;;;6.60;5.10;;;10.30;99.90;;;;;;4141022;28;20042;-64
2023/12/13 19:00:59;;;;;;;7.28;5.38;;;10.30;99.90;;;;;;4138527;28;21630;-64
2023/12/13 19:03:00;;;;;;;5.75;4.65;;;10.30;99.90;;;;;;4139538;28;20030;-64
2023/12/13 19:05:01;;;;;;;8.23;5.40;;;10.30;99.90;;;;;;4141911;28;20530;-64
2023/12/13 19:07:02;;;;;;;7.55;5.28;;;10.30;99.90;;;;;;4153793;28;20382;-64
2023/12/13 19:09:03;;;;;;;8.40;5.78;;;10.30;99.90;;;;;;4139375;28;20037;-64
2023/12/13 19:11:03;;;;;;;8.10;6.07;;;10.30;99.90;;;;;;4143043;28;20112;-64
2023/12/13 19:13:04;;;;;;;8.98;6.45;;;10.30;99.90;;;;;;4137399;28;20449;-64
2023/12/13 19:15:06;;;;;;;11.93;8.07;;;10.20;99.90;;;;;;4139460;28;20471;-65
2023/12/13 19:17:06;;;;;;;11.30;7.67;;;10.30;99.90;;;;;;4139711;28;20335;-64
2023/12/13 19:19:07;;;;;;;11.73;8.32;;;10.30;99.90;;;;;;4140401;28;20060;-63
2023/12/13 19:21:08;;;;;;;11.40;8.52;;;10.20;99.90;;;;;;4143407;28;20062;-64
2023/12/13 19:23:08;;;;;;;13.93;9.68;;;10.30;99.90;;;;;;4140299;28;20034;-64
2023/12/13 19:25:09;;;;;;;13.35;9.38;;;10.30;99.90;;;;;;4139667;28;20069;-64
2023/12/13 19:27:10;;;;;;;15.35;9.73;;;10.20;99.90;;;;;;4141998;28;20038;-66
2023/12/13 19:29:12;;;;;;;13.63;9.50;;;10.20;99.90;;;;;;4140537;28;20113;-64
2023/12/13 19:31:12;;;;;;;10.95;8.57;;;10.20;99.90;;;;;;4140985;28;20452;-64
2023/12/13 19:33:13;;;;;;;14.50;10.00;;;10.20;99.90;;;;;;4137769;28;20135;-64
2023/12/13 19:35:14;;;;;;;12.57;8.75;;;10.20;99.90;;;;;;4139193;28;20038;-64
2023/12/13 19:37:14;;;;;;;12.43;8.65;;;10.20;99.90;;;;;;4140728;28;20112;-64
2023/12/13 19:39:15;;;;;;;13.48;8.85;;;10.20;99.90;;;;;;4156974;28;20521;-64
2023/12/13 19:41:15;;;;;;;13.10;8.75;;;10.20;99.90;;;;;;4140423;28;20088;-64
2023/12/13 19:43:16;;;;;;;13.48;8.90;;;10.20;99.90;;;;;;4137104;28;20494;-64
2023/12/13 19:45:17;;;;;;;13.23;9.15;;;10.20;99.90;;;;;;4141313;28;20038;-64
2023/12/13 19:47:17;;;;;;;13.85;9.00;;;10.20;99.90;;;;;;4139504;28;20095;-63
2023/12/13 19:49:18;;;;;;;11.88;8.40;;;10.10;99.90;;;;;;4141836;28;20501;-63
2023/12/13 19:51:18;;;;;;;13.35;7.93;;;10.10;99.90;;;;;;4136963;28;20065;-64
2023/12/13 19:53:19;;;;;;;11.18;8.18;;;10.10;99.90;;;;;;4139214;28;20107;-64
2023/12/13 19:55:19;;;;;;;9.05;7.35;;;10.10;99.90;;;;;;4138870;28;20401;-64
2023/12/13 19:57:20;;;;;;;12.80;8.07;;;10.10;99.90;;;;;;4142044;28;20096;-64
2023/12/13 19:59:22;;;;;;;9.90;7.30;;;10.10;99.90;;;;;;4139298;28;20069;-63
2023/12/13 20:01:22;;;;;;;13.00;7.20;;;10.10;99.90;;;;;;4139306;28;20048;-63
2023/12/13 20:03:23;;;;;;;11.40;7.85;;;10.10;99.90;;;;;;4143007;28;20116;-64
2023/12/13 20:05:23;;;;;;;12.02;8.45;;;10.20;99.90;;;;;;4139441;28;20040;-63
2023/12/13 20:07:24;;;;;;;11.23;8.27;;;10.10;99.90;;;;;;4139862;28;20037;-63
2023/12/13 20:09:25;;;;;;;9.95;7.00;;;10.10;99.90;;;;;;4143359;28;20037;-66
2023/12/13 20:11:25;;;;;;;10.52;7.55;;;10.10;99.90;;;;;;4132204;28;20037;-66
2023/12/13 20:13:26;;;;;;;11.30;7.85;;;10.10;99.90;;;;;;4141000;28;20464;-65
2023/12/13 20:15:26;;;;;;;11.55;7.57;;;10.10;99.90;;;;;;4142536;28;20395;-65
2023/12/13 20:17:27;;;;;;;10.23;7.47;;;10.10;99.90;;;;;;4142922;28;20038;-66
2023/12/13 20:19:28;;;;;;;13.32;8.30;;;10.00;99.90;;;;;;4144625;28;20057;-70
2023/12/13 20:21:30;;;;;;;10.90;7.63;;;10.00;99.90;;;;;;4137746;28;20477;-70
2023/12/13 20:23:31;;;;;;;9.32;6.68;;;10.00;99.90;;;;;;4136153;28;20045;-70
2023/12/13 20:25:31;;;;;;;13.18;8.13;;;10.00;99.90;;;;;;4138759;28;20030;-70
2023/12/13 20:27:36;;;;;;;9.60;7.18;;;10.00;99.90;;;;;;4153644;28;20033;-70
2023/12/13 20:29:37;;;;;;;11.18;7.13;;;10.00;99.90;;;;;;4137129;28;20088;-66
2023/12/13 20:31:37;;;;;;;10.90;7.70;;;10.00;99.90;;;;;;4130313;28;20033;-66
2023/12/13 20:33:38;;;;;;;12.25;8.23;;;10.00;99.90;;;;;;4142526;28;20046;-66
2023/12/13 20:35:41;;;;;;;11.57;8.02;;;10.00;99.90;;;;;;4132116;28;20061;-66
2023/12/13 20:37:41;;;;;;;14.00;8.85;;;10.00;99.90;;;;;;4134249;28;20066;-66
2023/12/13 20:39:42;;;;;;;14.07;8.57;;;10.00;99.90;;;;;;4139054;28;20034;-66
2023/12/13 20:41:43;;;;;;;12.95;8.00;;;10.00;99.90;;;;;;4133915;28;20034;-66
2023/12/13 20:43:43;;;;;;;13.35;8.38;;;9.90;99.90;;;;;;4132646;28;20475;-66
2023/12/13 20:45:44;;;;;;;16.45;10.10;;;9.90;99.90;;;;;;4133395;28;20403;-66
2023/12/13 20:47:46;;;;;;;12.95;8.45;;;9.90;99.90;;;;;;4128411;28;20035;-66
2023/12/13 20:49:47;;;;;;;13.00;8.63;;;9.90;99.90;;;;;;4137836;28;20121;-66
2023/12/13 20:51:47;;;;;;;12.57;8.98;;;9.90;99.90;;;;;;4132504;28;20363;-66
2023/12/13 20:53:48;;;;;;;14.15;9.48;;;9.90;99.90;;;;;;4141290;28;20050;-66
2023/12/13 20:55:49;;;;;;;14.45;9.38;;;9.90;99.90;;;;;;4139468;28;20038;-66
2023/12/13 20:57:50;;;;;;;14.50;9.45;;;9.90;99.90;;;;;;4136473;28;20044;-66
2023/12/13 20:59:51;;;;;;;15.18;9.80;;;9.90;99.90;;;;;;4141014;28;20045;-66
2023/12/13 21:01:51;;;;;;;14.32;9.02;;;9.90;99.90;;;;;;4136818;28;20061;-66
2023/12/13 21:03:52;;;;;;;14.32;9.20;;;9.90;99.90;;;;;;4137712;28;20085;-66
2023/12/13 21:05:52;;;;;;;16.05;9.98;;;9.90;99.90;;;;;;4137675;28;20041;-66
2023/12/13 21:07:53;;;;;;;15.77;10.50;;;9.90;99.90;;;;;;4142881;28;20034;-66
2023/12/13 21:09:53;;;;;;;15.15;9.65;;;9.90;99.90;;;;;;4137195;28;20053;-65
2023/12/13 21:11:54;;;;;;;13.75;8.98;;;9.90;99.90;;;;;;4131837;28;20053;-66
2023/12/13 21:13:55;;;;;;;14.45;9.48;;;9.90;99.90;;;;;;4140112;28;20050;-66
2023/12/13 21:15:55;;;;;;;15.68;9.57;;;9.90;99.90;;;;;;4132275;28;20037;-65
2023/12/13 21:17:56;;;;;;;12.88;8.88;;;9.80;99.90;;;;;;4137105;28;20050;-66
2023/12/13 21:19:58;;;;;;;17.42;10.20;;;9.80;99.90;;;;;;4134347;28;20402;-66
2023/12/13 21:21:59;;;;;;;15.10;9.88;;;9.80;99.90;;;;;;4133863;28;20494;-65
2023/12/13 21:24:00;;;;;;;14.52;9.40;;;9.80;99.90;;;;;;4133279;28;20086;-66
2023/12/13 21:26:00;;;;;;;14.30;9.27;;;9.80;99.90;;;;;;4139656;28;20034;-66
2023/12/13 21:28:01;;;;;;;17.52;10.90;;;9.80;99.90;;;;;;4154817;28;20072;-66
2023/12/13 21:30:01;;;;;;;14.43;9.15;;;9.80;99.90;;;;;;4135218;28;20193;-65
2023/12/13 21:32:02;;;;;;;13.40;9.43;;;9.80;99.90;;;;;;4135218;28;20401;-67
2023/12/13 21:34:03;;;;;;;19.40;9.77;;;9.80;99.90;;;;;;4134016;28;20057;-66
2023/12/13 21:36:04;;;;;;;16.08;10.45;;;9.80;99.90;;;;;;4131433;28;20049;-66
2023/12/13 21:38:06;;;;;;;14.75;9.80;;;9.80;99.90;;;;;;4142409;28;20034;-66
2023/12/13 21:40:07;;;;;;;15.70;9.73;;;9.80;99.90;;;;;;4141690;28;20113;-70
2023/12/13 21:42:08;;;;;;;16.02;9.95;;;9.80;99.90;;;;;;4140277;28;20119;-70
2023/12/13 21:44:09;;;;;;;15.07;9.85;;;9.70;99.90;;;;;;4145795;28;20049;-70
2023/12/13 21:46:19;;;;;;;16.95;9.90;;;9.80;99.90;;;;;;4142523;28;20038;-70
2023/12/13 21:48:19;;;;;;;17.35;10.10;;;9.70;99.90;;;;;;4138536;28;20092;-70
2023/12/13 21:50:20;;;;;;;13.55;9.45;;;9.70;99.90;;;;;;4135295;28;20038;-70
2023/12/13 21:52:20;;;;;;;13.50;9.00;;;9.70;99.90;;;;;;4130933;28;20073;-70
2023/12/13 21:54:21;;;;;;;15.68;10.40;;;9.70;99.90;;;;;;4134233;28;20037;-70
2023/12/13 21:56:22;;;;;;;14.02;9.57;;;9.70;99.90;;;;;;4136411;28;20092;-70
2023/12/13 21:58:22;;;;;;;17.38;9.30;;;9.70;99.90;;;;;;4139360;28;20536;-70
2023/12/13 22:00:23;;;;;;;14.70;9.45;;;9.70;99.90;;;;;;4133342;28;20120;-70
2023/12/13 22:02:24;;;;;;;15.27;10.20;;;9.70;99.90;;;;;;4139238;28;20035;-70
2023/12/13 22:04:24;;;;;;;17.75;10.32;;;9.70;99.90;;;;;;4144437;28;20041;-70
2023/12/13 22:06:25;;;;;;;16.33;10.20;;;9.60;99.90;;;;;;4137594;28;20116;-70
2023/12/13 22:08:26;;;;;;;18.63;10.85;;;9.70;99.90;;;;;;4137835;28;20380;-70
2023/12/13 22:10:26;;;;;;;16.63;10.07;;;9.60;99.90;;;;;;4137663;28;20506;-70
2023/12/13 22:12:28;;;;;;;14.85;9.43;;;9.70;99.90;;;;;;4140196;28;20057;-70
2023/12/13 22:14:28;;;;;;;18.02;11.73;;;9.70;99.90;;;;;;4135454;28;20042;-70
2023/12/13 22:16:29;;;;;;;15.75;10.60;;;9.70;99.90;;;;;;4138734;28;20034;-70
2023/12/13 22:18:38;;;;;;;18.63;12.05;;;9.70;99.90;;;;;;4142023;28;20033;-70
2023/12/13 22:20:38;;;;;;;17.48;10.93;;;9.70;99.90;;;;;;4138342;28;20029;-70
2023/12/13 22:22:39;;;;;;;18.55;11.68;;;9.70;99.90;;;;;;4157634;28;20423;-70
2023/12/13 22:24:40;;;;;;;18.40;11.07;;;9.70;99.90;;;;;;4142087;28;20038;-69
2023/12/13 22:26:41;;;;;;;18.08;11.82;;;9.70;99.90;;;;;;4137440;28;20042;-70
2023/12/13 22:28:42;;;;;;;23.73;12.23;;;9.70;99.90;;;;;;4141157;28;20037;-69
2023/12/13 22:30:44;;;;;;;20.35;12.55;;;9.70;99.90;;;;;;4128552;28;20406;-70
2023/12/13 22:32:45;;;;;;;19.25;12.43;;;9.70;99.90;;;;;;4143529;28;20046;-70
2023/12/13 22:34:45;;;;;;;22.63;13.00;;;9.70;99.90;;;;;;4135694;28;20509;-70
2023/12/13 22:36:46;;;;;;;19.63;12.48;;;9.70;99.90;;;;;;4133660;28;20046;-69
2023/12/13 22:38:46;;;;;;;23.88;14.23;;;9.70;99.90;;;;;;4138140;28;20041;-70
2023/12/13 22:40:47;;;;;;;23.48;13.80;;;9.70;99.90;;;;;;4137957;28;20072;-70
2023/12/13 22:42:48;;;;;;;23.33;14.52;;;9.70;99.90;;;;;;4142190;28;20038;-70
2023/12/13 22:44:48;;;;;;;22.75;14.27;;;9.70;99.90;;;;;;4138724;28;20528;-69
2023/12/13 22:46:49;;;;;;;23.17;14.15;;;9.70;99.90;;;;;;4137761;28;20068;-70
2023/12/13 22:48:49;;;;;;;23.67;15.13;;;9.70;99.90;;;;;;4132665;28;20061;-69
2023/12/13 22:50:50;;;;;;;24.33;14.18;;;9.70;99.90;;;;;;4143437;28;20479;-69
2023/12/13 22:52:50;;;;;;;25.98;15.77;;;9.70;99.90;;;;;;4136338;28;20058;-69
2023/12/13 22:54:51;;;;;;;24.83;15.80;;;9.70;99.90;;;;;;4137198;28;20714;-69
2023/12/13 22:56:52;;;;;;;31.23;17.52;;;9.70;99.90;;;;;;4138959;28;20027;-68
2023/12/13 22:58:52;;;;;;;23.17;14.27;;;9.70;99.90;;;;;;4139941;28;20057;-69
2023/12/13 23:00:53;;;;;;;22.98;13.98;;;9.70;99.90;;;;;;4140051;28;20467;-68
2023/12/13 23:02:55;;;;;;;24.77;15.18;;;9.70;99.90;;;;;;4135879;28;20054;-68
2023/12/13 23:04:55;;;;;;;24.45;15.25;;;9.70;99.90;;;;;;4135028;28;20062;-68
2023/12/13 23:06:56;;;;;;;24.52;15.43;;;9.70;99.90;;;;;;4132011;28;20085;-69
2023/12/13 23:08:56;;;;;;;25.52;14.63;;;9.70;99.90;;;;;;4136679;28;20456;-68
2023/12/13 23:10:57;;;;;;;26.60;15.35;;;9.70;99.90;;;;;;4135278;28;20049;-68
2023/12/13 23:12:58;;;;;;;24.70;14.73;;;9.70;99.90;;;;;;4137669;28;20034;-68
2023/12/13 23:14:58;;;;;;;21.77;12.93;;;9.70;99.90;;;;;;4138524;28;20037;-69
2023/12/13 23:16:59;;;;;;;20.42;12.73;;;9.70;99.90;;;;;;4136459;28;20133;-68
2023/12/13 23:19:00;;;;;;;21.23;12.93;;;9.70;99.90;;;;;;4129782;28;20038;-68
2023/12/13 23:21:00;;;;;;;20.77;12.27;;;9.60;99.90;;;;;;4151372;28;20033;-69
2023/12/13 23:23:01;;;;;;;20.55;11.73;;;9.60;99.90;;;;;;4133194;28;20037;-68
2023/12/13 23:25:01;;;;;;;21.58;11.75;;;9.60;99.90;;;;;;4143695;28;20042;-69
2023/12/13 23:27:02;;;;;;;20.10;11.40;;;9.60;99.90;;;;;;4136179;28;20045;-69
2023/12/13 23:29:03;;;;;;;22.38;12.57;;;9.60;99.90;;;;;;4133386;28;20034;-68
2023/12/13 23:31:03;;;;;;;19.55;11.05;;;9.50;99.90;;;;;;4127999;28;20050;-70
2023/12/13 23:33:04;;;;;;;19.90;11.30;;;9.50;99.90;;;;;;4140681;28;20045;-69
2023/12/13 23:35:05;;;;;;;20.52;11.52;;;9.50;99.90;;;;;;4142706;28;20041;-69
2023/12/13 23:37:05;;;;;;;21.33;11.70;;;9.50;99.90;;;;;;4138097;28;20026;-68
2023/12/13 23:39:06;;;;;;;19.92;11.00;;;9.50;99.90;;;;;;4140739;28;20471;-69
2023/12/13 23:41:07;;;;;;;21.92;11.82;;;9.50;99.90;;;;;;4140999;28;20144;-69
2023/12/13 23:43:08;;;;;;;20.75;11.38;;;9.50;99.90;;;;;;4139493;28;20478;-69
2023/12/13 23:45:09;;;;;;;18.50;10.50;;;9.50;99.90;;;;;;4136909;28;20498;-69
2023/12/13 23:47:09;;;;;;;18.52;10.98;;;9.50;99.90;;;;;;4139863;28;20038;-68
2023/12/13 23:49:10;;;;;;;19.50;11.45;;;9.50;99.90;;;;;;4142603;28;20084;-69
2023/12/13 23:51:10;;;;;;;21.33;11.60;;;9.50;99.90;;;;;;4138821;28;20057;-69
2023/12/13 23:53:11;;;;;;;23.77;12.30;;;9.50;99.90;;;;;;4142857;28;20471;-68
2023/12/13 23:55:12;;;;;;;20.75;12.07;;;9.50;99.90;;;;;;4142444;28;20072;-69
2023/12/13 23:57:13;;;;;;;20.02;11.27;;;9.50;99.90;;;;;;4133728;28;20490;-69
2023/12/13 23:59:13;;;;;;;18.80;11.20;;;9.50;99.90;;;;;;4139425;28;20122;-69
